Time;durP1;ratioP1;P1;durP2;ratioP2;P2;SDS_P1;SDS_P2;PMS_P1;PMS_P2;Temp;Humidity;BMP_temperature;BMP_pressure;BME280_temperature;BME280_humidity;BME280_pressure;Samples;Min_cycle;Max_cycle;Signal;HPM_P1;HPM_P2
2023/04/30 00:00:32;;;;;;;7.13;6.53;;;12.60;99.90;;;;;;5071690;28;20383;-82
2023/04/30 00:02:58;;;;;;;8.13;6.15;;;12.50;99.90;;;;;;5070881;28;20461;-82
2023/04/30 00:05:24;;;;;;;7.05;6.45;;;12.60;99.90;;;;;;5053397;28;20387;-83
2023/04/30 00:07:49;;;;;;;7.03;6.40;;;12.70;99.90;;;;;;5071228;28;20403;-82
2023/04/30 00:10:15;;;;;;;6.90;6.17;;;12.50;99.90;;;;;;5071545;28;20415;-83
2023/04/30 00:12:40;;;;;;;7.40;6.47;;;12.50;99.90;;;;;;5071250;28;20479;-81
2023/04/30 00:15:06;;;;;;;7.25;6.50;;;12.50;99.90;;;;;;5058858;28;20399;-81
2023/04/30 00:17:32;;;;;;;6.70;6.00;;;12.30;99.90;;;;;;5063495;28;20453;-81
2023/04/30 00:19:57;;;;;;;6.50;5.90;;;12.20;99.90;;;;;;5069041;28;20393;-80
2023/04/30 00:22:23;;;;;;;6.93;6.00;;;12.10;99.90;;;;;;5060695;28;20488;-81
2023/04/30 00:24:48;;;;;;;6.45;5.85;;;12.00;99.90;;;;;;5060467;28;20448;-81
2023/04/30 00:27:14;;;;;;;6.80;6.10;;;11.90;99.90;;;;;;5059058;28;20377;-81
2023/04/30 00:29:40;;;;;;;7.87;7.00;;;12.10;99.90;;;;;;5069387;28;20741;-80
2023/04/30 00:32:05;;;;;;;8.25;6.70;;;12.20;99.90;;;;;;5080357;28;20406;-80
2023/04/30 00:34:31;;;;;;;6.63;5.93;;;12.10;99.90;;;;;;5080520;28;20380;-81
2023/04/30 00:36:56;;;;;;;6.97;6.28;;;12.00;99.90;;;;;;5064384;28;20387;-81
2023/04/30 00:39:22;;;;;;;8.27;7.40;;;11.90;99.90;;;;;;5082605;28;20402;-81
2023/04/30 00:41:47;;;;;;;7.37;6.43;;;11.80;99.90;;;;;;5066687;28;20924;-80
2023/04/30 00:44:13;;;;;;;7.63;6.30;;;11.70;99.90;;;;;;5092368;28;20415;-81
2023/04/30 00:46:38;;;;;;;6.60;6.00;;;11.70;99.90;;;;;;5073812;28;20399;-81
2023/04/30 00:49:04;;;;;;;6.67;5.97;;;11.60;99.90;;;;;;5061408;28;20397;-81
2023/04/30 00:51:34;;;;;;;7.10;6.50;;;11.50;99.90;;;;;;5063390;28;20405;-83
2023/04/30 00:54:01;;;;;;;6.90;6.30;;;11.40;99.90;;;;;;5073585;28;20387;-81
2023/04/30 00:56:29;;;;;;;7.83;6.40;;;11.40;99.90;;;;;;5049610;28;20408;-81
2023/04/30 00:58:56;;;;;;;8.07;6.50;;;11.30;99.90;;;;;;5078243;28;20448;-81
2023/04/30 01:01:27;;;;;;;7.10;6.40;;;11.20;99.90;;;;;;5080079;28;20437;-82
2023/04/30 01:03:53;;;;;;;9.25;7.00;;;11.10;99.90;;;;;;5062961;28;20766;-81
2023/04/30 01:06:19;;;;;;;7.57;6.82;;;11.00;99.90;;;;;;5079265;28;20865;-81
2023/04/30 01:08:45;;;;;;;7.80;7.00;;;11.00;99.90;;;;;;5060326;28;20454;-81
2023/04/30 01:11:45;;;;;;;7.15;6.45;;;11.00;99.90;;;;;;5063039;28;20470;-82
2023/04/30 01:14:35;;;;;;;6.90;6.30;;;10.80;99.90;;;;;;5044064;28;20385;-81
2023/04/30 01:17:19;;;;;;;7.20;6.50;;;10.80;99.90;;;;;;5061560;28;20385;-81
2023/04/30 01:19:45;;;;;;;7.57;6.32;;;10.80;99.90;;;;;;5057151;28;20397;-80
2023/04/30 01:22:35;;;;;;;7.65;6.85;;;10.70;99.90;;;;;;5069444;28;20462;-81
2023/04/30 01:25:21;;;;;;;8.13;6.82;;;10.80;99.90;;;;;;5058217;28;20395;-81
2023/04/30 01:28:09;;;;;;;7.47;6.78;;;10.80;99.90;;;;;;5061556;28;20388;-81
2023/04/30 01:30:36;;;;;;;8.07;7.28;;;10.70;99.90;;;;;;5054995;28;20509;-80
2023/04/30 01:33:02;;;;;;;7.38;6.78;;;10.80;99.90;;;;;;5077194;28;20455;-81
2023/04/30 01:35:34;;;;;;;8.23;6.82;;;10.70;99.90;;;;;;5059607;28;20386;-80
2023/04/30 01:38:29;;;;;;;8.93;7.13;;;10.80;99.90;;;;;;5056522;28;20388;-81
2023/04/30 01:41:03;;;;;;;6.90;6.25;;;10.70;99.90;;;;;;5057941;28;20457;-81
2023/04/30 01:44:08;;;;;;;7.30;6.60;;;10.70;99.90;;;;;;5058225;28;20389;-81
2023/04/30 01:46:34;;;;;;;6.65;6.05;;;10.80;99.90;;;;;;5056410;28;20389;-81
2023/04/30 01:49:20;;;;;;;7.18;6.10;;;10.90;99.90;;;;;;5064331;28;20473;-81
2023/04/30 01:51:49;;;;;;;6.28;5.68;;;10.90;99.90;;;;;;5075996;28;20893;-81
2023/04/30 01:54:31;;;;;;;6.70;6.10;;;10.90;99.90;;;;;;5077494;28;20426;-81
2023/04/30 01:57:05;;;;;;;6.18;5.57;;;11.00;99.90;;;;;;5058797;28;20435;-81
2023/04/30 01:59:38;;;;;;;6.40;5.10;;;11.10;99.90;;;;;;5058428;28;20378;-81
2023/04/30 02:02:05;;;;;;;5.28;4.78;;;11.30;99.90;;;;;;5056397;28;20384;-81
2023/04/30 02:04:31;;;;;;;5.55;4.95;;;11.30;99.90;;;;;;5078063;28;20380;-81
2023/04/30 02:06:57;;;;;;;5.25;4.80;;;11.30;99.90;;;;;;5076464;28;20375;-81
2023/04/30 02:09:23;;;;;;;5.28;4.88;;;11.40;99.90;;;;;;5059097;28;20433;-81
2023/04/30 02:11:49;;;;;;;5.90;5.40;;;11.60;99.90;;;;;;5077507;28;20412;-81
2023/04/30 02:14:14;;;;;;;4.88;4.47;;;11.60;99.90;;;;;;5077551;28;20386;-81
2023/04/30 02:16:40;;;;;;;5.15;4.70;;;11.70;99.90;;;;;;5058803;28;20384;-81
2023/04/30 02:19:05;;;;;;;4.77;4.37;;;11.80;99.90;;;;;;5057237;28;20403;-81
2023/04/30 02:21:31;;;;;;;4.80;4.40;;;11.90;99.90;;;;;;5057808;28;20392;-81
2023/04/30 02:23:56;;;;;;;5.10;4.60;;;12.00;99.90;;;;;;5076577;28;20414;-81
2023/04/30 02:26:22;;;;;;;5.70;4.45;;;12.20;99.90;;;;;;5064557;28;20392;-81
2023/04/30 02:28:47;;;;;;;5.90;4.77;;;12.20;99.90;;;;;;5049498;28;20399;-81
2023/04/30 02:31:13;;;;;;;4.90;4.50;;;12.20;99.90;;;;;;5058413;28;20490;-81
2023/04/30 02:33:38;;;;;;;5.53;4.55;;;12.20;99.90;;;;;;5057800;28;20450;-81
2023/04/30 02:36:04;;;;;;;5.70;4.53;;;12.30;99.90;;;;;;5044934;28;20390;-81
2023/04/30 02:38:30;;;;;;;4.67;4.27;;;12.40;99.90;;;;;;5071054;28;20443;-81
2023/04/30 02:40:55;;;;;;;4.80;4.40;;;12.30;99.90;;;;;;5055860;28;20855;-81
2023/04/30 02:43:21;;;;;;;4.90;4.40;;;12.40;99.90;;;;;;5073567;28;20393;-81
2023/04/30 02:45:47;;;;;;;4.50;4.10;;;12.40;99.90;;;;;;5044444;28;21009;-81
2023/04/30 02:48:12;;;;;;;4.10;3.80;;;12.40;99.90;;;;;;5058448;28;20407;-81
2023/04/30 02:50:38;;;;;;;4.77;4.30;;;12.40;99.90;;;;;;5077682;28;20410;-81
2023/04/30 02:53:03;;;;;;;6.60;4.10;;;12.50;99.90;;;;;;5057165;28;20481;-81
2023/04/30 02:55:29;;;;;;;4.38;3.90;;;12.60;99.90;;;;;;5076208;28;20382;-81
2023/04/30 02:57:55;;;;;;;4.80;4.40;;;12.60;99.90;;;;;;5068446;28;20417;-81
2023/04/30 03:00:21;;;;;;;4.60;4.20;;;12.70;99.90;;;;;;5056680;28;20385;-82
2023/04/30 03:02:46;;;;;;;5.20;3.90;;;12.60;99.90;;;;;;5071142;28;20725;-82
2023/04/30 03:05:14;;;;;;;3.92;3.63;;;12.60;99.90;;;;;;5074296;28;20399;-81
2023/04/30 03:07:40;;;;;;;4.50;4.10;;;12.60;99.90;;;;;;5052510;28;20746;-81
2023/04/30 03:10:06;;;;;;;4.55;4.15;;;12.70;99.90;;;;;;5054592;28;20432;-81
2023/04/30 03:12:32;;;;;;;4.73;4.17;;;12.60;99.90;;;;;;5057238;28;20786;-81
2023/04/30 03:14:57;;;;;;;5.20;4.50;;;12.70;99.90;;;;;;5075054;28;20380;-81
2023/04/30 03:17:23;;;;;;;4.40;4.00;;;12.60;99.90;;;;;;5074014;28;20417;-81
2023/04/30 03:19:50;;;;;;;4.70;3.83;;;12.60;99.90;;;;;;5056989;28;20387;-81
2023/04/30 03:22:18;;;;;;;4.60;4.20;;;12.60;99.90;;;;;;5063539;28;20441;-82
2023/04/30 03:24:44;;;;;;;4.10;3.70;;;12.50;99.90;;;;;;5075127;28;20384;-81
2023/04/30 03:27:09;;;;;;;4.55;4.15;;;12.60;99.90;;;;;;5073979;28;20491;-81
2023/04/30 03:29:35;;;;;;;3.95;3.60;;;12.60;99.90;;;;;;5073719;28;20383;-81
2023/04/30 03:32:00;;;;;;;4.50;4.10;;;12.50;99.90;;;;;;5053315;28;20748;-81
2023/04/30 03:34:26;;;;;;;4.30;3.90;;;12.60;99.90;;;;;;5053937;28;20374;-81
2023/04/30 03:36:51;;;;;;;4.20;3.80;;;12.60;99.90;;;;;;5054405;28;20378;-82
2023/04/30 03:39:17;;;;;;;3.80;3.50;;;12.70;99.90;;;;;;5046629;28;20407;-81
2023/04/30 03:41:43;;;;;;;4.33;3.80;;;12.70;99.90;;;;;;5068473;28;20396;-81
2023/04/30 03:44:14;;;;;;;4.47;4.07;;;12.70;99.90;;;;;;5061869;28;20475;-81
2023/04/30 03:46:43;;;;;;;3.93;3.53;;;12.70;99.90;;;;;;5060623;28;20467;-81
2023/04/30 03:49:08;;;;;;;4.10;3.70;;;12.70;99.90;;;;;;5063213;28;20483;-82
2023/04/30 03:51:38;;;;;;;4.00;3.70;;;12.60;99.90;;;;;;5047115;28;20479;-81
2023/04/30 03:54:05;;;;;;;4.30;3.90;;;12.60;99.90;;;;;;5050006;28;20394;-82
2023/04/30 03:56:31;;;;;;;4.40;3.72;;;12.60;99.90;;;;;;5070767;28;20406;-81
2023/04/30 03:58:57;;;;;;;4.60;4.20;;;12.70;99.90;;;;;;5054625;28;20396;-81
2023/04/30 04:01:22;;;;;;;4.30;3.80;;;12.80;99.90;;;;;;5054417;28;20389;-81
2023/04/30 04:03:48;;;;;;;3.88;3.47;;;12.70;99.90;;;;;;5036284;28;21070;-81
2023/04/30 04:06:13;;;;;;;3.85;3.50;;;12.60;99.90;;;;;;5055880;28;20380;-81
2023/04/30 04:08:42;;;;;;;4.20;3.80;;;12.60;99.90;;;;;;5063048;28;20417;-81
2023/04/30 04:11:08;;;;;;;4.30;3.90;;;12.50;99.90;;;;;;5054837;28;20418;-81
2023/04/30 04:13:34;;;;;;;3.80;3.40;;;12.40;99.90;;;;;;5052906;28;20464;-81
2023/04/30 04:15:59;;;;;;;3.67;3.30;;;12.50;99.90;;;;;;5054079;28;20752;-81
2023/04/30 04:18:25;;;;;;;4.55;4.15;;;12.40;99.90;;;;;;5061453;28;20398;-82
2023/04/30 04:20:50;;;;;;;4.28;3.88;;;12.40;99.90;;;;;;5073841;28;20450;-82
2023/04/30 04:23:16;;;;;;;3.80;3.40;;;12.50;99.90;;;;;;5072339;28;20402;-82
2023/04/30 04:25:43;;;;;;;4.00;3.70;;;12.40;99.90;;;;;;5075124;28;20380;-82
2023/04/30 04:28:08;;;;;;;4.55;4.15;;;12.40;99.90;;;;;;5075310;28;20399;-82
2023/04/30 04:30:35;;;;;;;5.85;4.32;;;12.50;99.90;;;;;;5074479;28;20897;-82
2023/04/30 04:33:01;;;;;;;5.30;3.60;;;12.50;99.90;;;;;;5056826;28;20391;-82
2023/04/30 04:35:26;;;;;;;5.30;4.23;;;12.50;99.90;;;;;;5075406;28;20386;-82
2023/04/30 04:37:52;;;;;;;4.60;3.60;;;12.50;99.90;;;;;;5074705;28;20387;-82
2023/04/30 04:40:17;;;;;;;3.65;3.35;;;12.50;99.90;;;;;;5057147;28;20450;-83
2023/04/30 04:42:43;;;;;;;3.50;3.20;;;12.60;99.90;;;;;;5056935;28;20458;-82
2023/04/30 04:45:09;;;;;;;4.10;3.60;;;12.70;99.90;;;;;;5064036;28;20381;-83
2023/04/30 04:47:36;;;;;;;3.78;3.47;;;12.70;99.90;;;;;;5062052;28;20468;-83
2023/04/30 04:50:02;;;;;;;3.60;3.30;;;12.80;99.90;;;;;;5080275;28;20412;-82
2023/04/30 04:52:27;;;;;;;4.20;3.50;;;12.80;99.90;;;;;;5075046;28;20392;-82
2023/04/30 04:54:53;;;;;;;3.30;3.00;;;12.80;99.90;;;;;;5065829;28;20397;-83
2023/04/30 04:57:18;;;;;;;4.40;3.10;;;12.90;99.90;;;;;;5065977;28;20383;-83
2023/04/30 04:59:44;;;;;;;3.13;2.83;;;13.00;99.90;;;;;;5076032;28;20423;-82
2023/04/30 05:02:10;;;;;;;3.53;3.22;;;12.90;99.90;;;;;;5058981;28;20483;-82
2023/04/30 05:04:35;;;;;;;3.97;3.20;;;13.00;99.90;;;;;;5065778;28;20389;-82
2023/04/30 05:07:01;;;;;;;3.43;3.13;;;13.10;99.90;;;;;;5058977;28;20390;-82
2023/04/30 05:09:27;;;;;;;3.47;3.00;;;13.10;99.90;;;;;;5059608;28;20381;-83
2023/04/30 05:11:53;;;;;;;3.17;2.70;;;13.20;99.90;;;;;;5060011;28;20480;-83
2023/04/30 05:14:19;;;;;;;3.07;2.87;;;13.30;99.90;;;;;;5062355;28;20433;-82
2023/04/30 05:16:45;;;;;;;3.47;3.15;;;13.30;99.90;;;;;;5062454;28;20443;-82
2023/04/30 05:19:10;;;;;;;4.10;3.00;;;13.30;99.90;;;;;;5056249;28;20440;-82
2023/04/30 05:21:36;;;;;;;3.00;2.70;;;13.40;99.90;;;;;;5056300;28;20393;-82
2023/04/30 05:24:02;;;;;;;2.80;2.60;;;13.40;99.80;;;;;;5057654;28;20476;-82
2023/04/30 05:26:28;;;;;;;3.30;3.00;;;13.40;99.90;;;;;;5056741;28;20894;-82
2023/04/30 05:28:53;;;;;;;3.10;2.60;;;13.40;99.90;;;;;;5060873;28;20421;-83
2023/04/30 05:31:19;;;;;;;3.20;2.90;;;13.40;99.90;;;;;;5078128;28;20426;-84
2023/04/30 05:33:44;;;;;;;4.00;2.60;;;13.50;94.70;;;;;;5058414;28;20725;-82
2023/04/30 05:36:10;;;;;;;3.37;3.07;;;13.50;99.90;;;;;;5057834;28;20817;-81
2023/04/30 05:38:35;;;;;;;3.22;2.92;;;13.60;99.90;;;;;;5075090;28;20415;-82
2023/04/30 05:41:01;;;;;;;3.00;2.63;;;13.60;99.90;;;;;;5051514;28;20415;-82
2023/04/30 05:43:27;;;;;;;3.60;3.10;;;13.50;95.60;;;;;;5067955;28;20401;-81
2023/04/30 05:45:52;;;;;;;3.25;2.90;;;13.50;99.90;;;;;;5072948;28;20750;-81
2023/04/30 05:48:18;;;;;;;3.10;2.80;;;13.60;95.50;;;;;;5066867;28;20413;-82
2023/04/30 05:50:43;;;;;;;3.10;2.80;;;13.70;91.10;;;;;;5066077;28;20546;-82
2023/04/30 05:53:09;;;;;;;3.20;2.90;;;13.80;89.40;;;;;;5058118;28;20385;-82
2023/04/30 05:55:35;;;;;;;2.70;2.50;;;13.70;99.70;;;;;;5039330;28;20743;-82
2023/04/30 05:58:00;;;;;;;3.08;2.88;;;13.80;89.50;;;;;;5049169;28;20910;-82
2023/04/30 06:00:26;;;;;;;2.67;2.47;;;13.90;79.40;;;;;;5064830;28;20396;-82
2023/04/30 06:02:52;;;;;;;2.85;2.65;;;13.90;68.50;;;;;;5067696;28;20453;-82
2023/04/30 06:05:18;;;;;;;3.35;2.58;;;14.00;67.30;;;;;;5065858;28;20404;-82
2023/04/30 06:07:43;;;;;;;3.63;2.70;;;13.90;67.90;;;;;;5064004;28;20401;-82
2023/04/30 06:10:09;;;;;;;2.90;2.70;;;13.90;56.20;;;;;;5050847;28;20939;-82
2023/04/30 06:12:35;;;;;;;2.80;2.50;;;14.10;67.70;;;;;;5058675;28;20525;-82
2023/04/30 06:15:01;;;;;;;3.47;2.78;;;14.20;73.10;;;;;;5055469;28;20396;-82
2023/04/30 06:17:26;;;;;;;2.60;2.40;;;14.20;82.10;;;;;;5055610;28;20390;-82
2023/04/30 06:19:52;;;;;;;2.60;2.40;;;14.20;53.60;;;;;;5055034;28;20381;-82
2023/04/30 06:22:17;;;;;;;2.90;2.60;;;14.40;55.50;;;;;;5055946;28;20408;-82
2023/04/30 06:24:43;;;;;;;3.23;2.60;;;14.40;44.60;;;;;;5057263;28;20422;-82
2023/04/30 06:27:08;;;;;;;2.43;2.23;;;14.40;47.50;;;;;;5075297;28;20388;-82
2023/04/30 06:29:34;;;;;;;3.45;2.47;;;14.40;47.30;;;;;;5069426;28;20463;-82
2023/04/30 06:31:59;;;;;;;2.57;2.37;;;14.30;46.50;;;;;;5077251;28;20842;-82
2023/04/30 06:34:25;;;;;;;2.70;2.50;;;14.20;50.10;;;;;;5077409;28;20407;-82
2023/04/30 06:36:51;;;;;;;2.40;2.20;;;14.30;50.40;;;;;;5058750;28;20388;-82
2023/04/30 06:39:16;;;;;;;2.60;2.40;;;14.30;52.80;;;;;;5058813;28;20392;-82
2023/04/30 06:41:42;;;;;;;2.50;2.30;;;14.40;46.10;;;;;;5055328;28;20412;-82
2023/04/30 06:44:08;;;;;;;2.40;2.20;;;14.30;57.20;;;;;;5057413;28;20393;-82
2023/04/30 06:46:33;;;;;;;3.05;2.20;;;14.30;59.20;;;;;;5058860;28;20449;-82
2023/04/30 06:48:59;;;;;;;2.90;2.50;;;14.40;62.50;;;;;;5061965;28;20385;-81
2023/04/30 06:51:25;;;;;;;2.90;2.50;;;14.50;44.60;;;;;;5063779;28;20404;-81
2023/04/30 06:53:51;;;;;;;2.70;2.30;;;14.70;46.60;;;;;;5080250;28;20434;-82
2023/04/30 06:56:17;;;;;;;2.55;2.17;;;14.70;49.50;;;;;;5060810;28;20749;-82
2023/04/30 06:58:42;;;;;;;1.80;1.70;;;14.80;46.10;;;;;;5066326;28;20393;-83
2023/04/30 07:01:08;;;;;;;4.17;2.30;;;14.90;48.40;;;;;;5068532;28;20558;-82
2023/04/30 07:03:34;;;;;;;2.40;2.20;;;15.00;40.00;;;;;;5057430;28;20476;-82
2023/04/30 07:05:59;;;;;;;2.80;2.40;;;15.10;33.40;;;;;;5057026;28;20374;-82
2023/04/30 07:08:25;;;;;;;2.63;2.42;;;15.10;37.20;;;;;;5055623;28;20501;-82
2023/04/30 07:10:50;;;;;;;2.60;2.40;;;15.10;29.70;;;;;;5057251;28;20424;-82
2023/04/30 07:13:16;;;;;;;2.40;2.20;;;15.10;30.10;;;;;;5064069;28;20407;-82
2023/04/30 07:15:42;;;;;;;2.60;2.40;;;15.10;30.30;;;;;;5061580;28;20378;-82
2023/04/30 07:18:08;;;;;;;3.10;2.40;;;15.10;28.00;;;;;;5056355;28;20402;-82
2023/04/30 07:20:34;;;;;;;2.67;2.47;;;15.10;28.50;;;;;;5055041;28;20413;-82
2023/04/30 07:22:59;;;;;;;2.50;2.30;;;15.20;26.70;;;;;;5064465;28;20451;-82
2023/04/30 07:25:25;;;;;;;2.90;2.60;;;15.20;26.90;;;;;;5075159;28;20387;-82
2023/04/30 07:27:52;;;;;;;2.10;1.90;;;15.20;27.80;;;;;;5074993;28;20375;-82
2023/04/30 07:30:17;;;;;;;2.50;2.30;;;15.10;28.60;;;;;;5053830;28;20441;-82
2023/04/30 07:32:43;;;;;;;2.53;2.33;;;15.20;26.90;;;;;;5053765;28;20937;-82
2023/04/30 07:35:14;;;;;;;2.45;2.25;;;15.30;29.80;;;;;;5063237;28;20392;-82
2023/04/30 07:37:40;;;;;;;2.40;2.20;;;15.30;25.20;;;;;;5062015;28;20445;-82
2023/04/30 07:40:11;;;;;;;2.20;2.00;;;15.40;26.30;;;;;;5062637;28;20429;-82
2023/04/30 07:42:38;;;;;;;2.55;2.35;;;15.40;29.20;;;;;;5069786;28;20384;-81
2023/04/30 07:45:04;;;;;;;2.30;2.10;;;15.50;25.60;;;;;;5069135;28;20408;-83
2023/04/30 07:47:30;;;;;;;2.38;2.17;;;15.60;26.30;;;;;;5060520;28;20398;-81
2023/04/30 07:49:56;;;;;;;2.50;2.30;;;15.70;27.70;;;;;;5076798;28;20434;-82
2023/04/30 07:52:21;;;;;;;2.60;2.40;;;15.60;26.60;;;;;;5058484;28;20380;-82
2023/04/30 07:54:47;;;;;;;2.50;2.00;;;15.90;24.00;;;;;;5075828;28;20806;-82
2023/04/30 07:57:12;;;;;;;2.60;2.40;;;15.90;24.10;;;;;;5080321;28;20409;-81
2023/04/30 07:59:38;;;;;;;2.47;2.28;;;15.90;22.60;;;;;;5048325;28;20382;-82
2023/04/30 08:02:03;;;;;;;2.57;2.37;;;16.00;23.50;;;;;;5040346;28;20435;-82
2023/04/30 08:04:29;;;;;;;2.50;2.30;;;16.00;21.10;;;;;;5052123;28;20396;-83
2023/04/30 08:06:54;;;;;;;2.80;2.10;;;16.00;21.90;;;;;;5054479;28;20400;-83
2023/04/30 08:09:20;;;;;;;2.20;2.00;;;16.00;20.30;;;;;;5053560;28;20385;-83
2023/04/30 08:11:45;;;;;;;4.00;2.40;;;16.10;20.10;;;;;;5055169;28;20409;-83
2023/04/30 08:14:11;;;;;;;2.20;2.00;;;16.20;20.20;;;;;;5056373;28;20773;-83
2023/04/30 08:16:36;;;;;;;2.50;2.10;;;16.20;20.20;;;;;;5074463;28;20796;-83
2023/04/30 08:19:02;;;;;;;2.30;2.10;;;16.30;18.90;;;;;;5071710;28;20942;-83
2023/04/30 08:21:28;;;;;;;2.50;2.30;;;16.20;21.20;;;;;;5055567;28;20767;-83
2023/04/30 08:23:54;;;;;;;2.97;2.15;;;16.40;19.00;;;;;;5077373;28;20392;-83
2023/04/30 08:26:20;;;;;;;3.00;2.00;;;16.50;20.70;;;;;;5071705;28;20379;-83
2023/04/30 08:28:45;;;;;;;2.30;2.10;;;16.30;14.50;;;;;;5059705;28;20380;-83
2023/04/30 08:31:11;;;;;;;2.40;2.20;;;16.30;15.20;;;;;;5057388;28;20501;-83
2023/04/30 08:33:37;;;;;;;2.65;2.17;;;16.40;18.60;;;;;;5060933;28;20423;-83
2023/04/30 08:36:03;;;;;;;2.33;2.10;;;16.50;12.80;;;;;;5068861;28;20381;-81
2023/04/30 08:38:28;;;;;;;2.17;1.98;;;16.40;16.40;;;;;;5071328;28;20370;-83
2023/04/30 08:41:05;;;;;;;2.40;2.20;;;16.30;16.30;;;;;;5061358;28;20393;-83
2023/04/30 08:43:34;;;;;;;2.10;1.98;;;16.40;15.30;;;;;;5061057;28;20480;-83
2023/04/30 08:45:59;;;;;;;2.33;2.13;;;16.50;20.20;;;;;;5059093;28;20465;-82
2023/04/30 08:48:26;;;;;;;1.88;1.77;;;16.70;17.30;;;;;;5060326;28;20416;-82
2023/04/30 08:50:52;;;;;;;2.70;2.00;;;16.70;14.00;;;;;;5059150;28;20420;-82
2023/04/30 08:53:20;;;;;;;2.07;1.90;;;16.90;15.30;;;;;;5060713;28;20385;-82
2023/04/30 08:55:46;;;;;;;2.00;1.80;;;16.90;14.80;;;;;;5060597;28;20773;-82
2023/04/30 08:58:11;;;;;;;2.63;2.10;;;17.00;12.20;;;;;;5069587;28;20384;-82
2023/04/30 09:00:38;;;;;;;2.17;1.90;;;16.90;16.40;;;;;;5060222;28;20393;-82
2023/04/30 09:03:06;;;;;;;2.58;2.38;;;17.10;15.30;;;;;;5044962;28;20395;-82
2023/04/30 09:05:31;;;;;;;2.22;2.00;;;17.10;12.50;;;;;;5078826;28;20799;-82
2023/04/30 09:07:57;;;;;;;2.00;1.88;;;17.10;12.50;;;;;;5075497;28;20395;-82
2023/04/30 09:10:22;;;;;;;2.70;1.70;;;17.20;10.30;;;;;;5077695;28;20403;-82
2023/04/30 09:13:08;;;;;;;2.07;1.87;;;17.20;10.40;;;;;;5061412;28;20668;-82
2023/04/30 09:15:35;;;;;;;2.30;2.10;;;17.30;13.00;;;;;;5061038;28;20389;-83
2023/04/30 09:18:18;;;;;;;1.98;1.88;;;17.50;10.00;;;;;;5089082;22;20693;-80
2023/04/30 09:20:57;;;;;;;2.17;1.90;;;17.60;9.60;;;;;;5087031;28;20393;-79
2023/04/30 09:23:23;;;;;;;2.03;1.92;;;17.60;9.40;;;;;;5085200;28;20379;-80
2023/04/30 09:25:48;;;;;;;2.67;2.10;;;17.80;7.60;;;;;;5083490;28;20794;-79
2023/04/30 09:28:14;;;;;;;2.17;1.97;;;17.90;6.40;;;;;;5063159;28;20394;-79
2023/04/30 09:30:40;;;;;;;1.95;1.75;;;17.90;8.30;;;;;;5067849;28;20398;-80
2023/04/30 09:33:06;;;;;;;2.20;1.80;;;18.00;6.60;;;;;;5090358;28;20485;-79
2023/04/30 09:35:34;;;;;;;1.80;1.70;;;18.10;7.00;;;;;;5084899;28;20412;-79
2023/04/30 09:38:01;;;;;;;2.30;1.70;;;18.20;5.20;;;;;;5086308;28;20394;-80
2023/04/30 09:40:41;;;;;;;1.90;1.65;;;18.50;6.10;;;;;;5068372;28;20394;-80
2023/04/30 09:43:07;;;;;;;2.08;1.88;;;18.30;4.40;;;;;;5071228;28;20445;-79
2023/04/30 09:45:47;;;;;;;2.37;2.00;;;18.50;4.70;;;;;;5086774;28;20452;-79
2023/04/30 09:48:15;;;;;;;1.70;1.60;;;18.30;1.00;;;;;;5083058;28;20392;-79
2023/04/30 09:50:41;;;;;;;1.60;1.40;;;18.30;2.60;;;;;;5093962;28;20401;-80
2023/04/30 09:53:08;;;;;;;1.80;1.70;;;18.40;2.20;;;;;;5081976;28;20869;-80
2023/04/30 09:55:37;;;;;;;3.10;1.70;;;18.50;5.40;;;;;;5071826;28;20396;-80
2023/04/30 09:58:06;;;;;;;2.20;1.30;;;18.50;3.80;;;;;;5093436;28;20374;-80
2023/04/30 10:00:33;;;;;;;2.00;1.90;;;18.70;3.00;;;;;;5073558;28;20410;-79
2023/04/30 10:03:06;;;;;;;1.40;1.30;;;18.70;2.00;;;;;;5067521;28;20744;-80
2023/04/30 10:05:36;;;;;;;1.88;1.77;;;18.80;2.00;;;;;;5080717;28;20386;-80
2023/04/30 10:08:09;;;;;;;1.63;1.53;;;18.90;1.00;;;;;;5092204;28;20399;-80
2023/04/30 10:10:36;;;;;;;1.70;1.60;;;19.00;1.20;;;;;;5069843;28;20988;-80
2023/04/30 10:13:04;;;;;;;1.60;1.50;;;19.00;1.00;;;;;;5102275;28;20386;-80
2023/04/30 10:15:36;;;;;;;2.10;1.60;;;18.90;1.00;;;;;;5081059;28;20390;-80
2023/04/30 10:18:05;;;;;;;1.92;1.83;;;19.10;1.00;;;;;;5082484;28;20459;-80
2023/04/30 10:20:38;;;;;;;1.80;1.70;;;19.20;1.00;;;;;;5078096;28;20399;-80
2023/04/30 10:23:04;;;;;;;1.73;1.60;;;19.00;1.00;;;;;;5075612;28;20408;-80
2023/04/30 10:25:31;;;;;;;1.67;1.58;;;19.00;1.00;;;;;;5083593;28;20414;-80
2023/04/30 10:27:57;;;;;;;2.20;1.70;;;19.00;1.00;;;;;;5101121;28;20405;-79
2023/04/30 10:30:23;;;;;;;1.60;1.50;;;19.20;1.00;;;;;;5085403;28;20410;-79
2023/04/30 10:32:57;;;;;;;1.70;1.60;;;19.50;1.00;;;;;;5104087;28;20389;-80
2023/04/30 10:35:29;;;;;;;1.58;1.48;;;19.40;1.00;;;;;;5064132;28;20447;-80
2023/04/30 10:38:12;;;;;;;1.80;1.70;;;19.40;1.00;;;;;;5091990;28;20405;-80
2023/04/30 10:40:37;;;;;;;1.50;1.40;;;19.60;1.00;;;;;;5065432;28;20392;-80
2023/04/30 10:43:03;;;;;;;1.60;1.50;;;19.30;1.00;;;;;;5094535;28;20806;-80
2023/04/30 10:45:36;;;;;;;1.60;1.50;;;19.10;1.00;;;;;;5084685;28;20390;-79
2023/04/30 10:48:02;;;;;;;1.55;1.45;;;19.30;1.00;;;;;;5085019;28;20386;-80
2023/04/30 10:50:31;;;;;;;1.63;1.38;;;19.20;1.00;;;;;;5067289;28;20446;-80
2023/04/30 10:53:04;;;;;;;1.90;1.65;;;19.40;1.00;;;;;;5083646;28;20417;-79
2023/04/30 10:55:30;;;;;;;1.60;1.48;;;19.50;1.00;;;;;;5075600;28;20896;-80
2023/04/30 10:57:59;;;;;;;2.00;1.90;;;19.10;1.00;;;;;;5082681;28;20398;-80
2023/04/30 11:00:27;;;;;;;1.70;1.60;;;18.90;1.00;;;;;;5082938;28;20396;-80
2023/04/30 11:03:01;;;;;;;1.58;1.33;;;19.00;1.00;;;;;;5090763;28;20389;-80
2023/04/30 11:05:38;;;;;;;1.67;1.58;;;18.90;1.00;;;;;;5096115;28;20816;-80
2023/04/30 11:08:03;;;;;;;2.88;1.48;;;19.10;1.00;;;;;;5076175;28;20394;-80
2023/04/30 11:10:33;;;;;;;1.70;1.60;;;18.80;1.00;;;;;;5092504;28;20416;-82
2023/04/30 11:13:04;;;;;;;1.70;1.60;;;18.70;1.00;;;;;;5098293;28;20435;-81
2023/04/30 11:15:40;;;;;;;1.55;1.42;;;18.60;1.00;;;;;;5067486;28;20392;-81
2023/04/30 11:18:07;;;;;;;1.80;1.70;;;19.00;1.00;;;;;;5065126;28;20419;-81
2023/04/30 11:20:38;;;;;;;1.70;1.60;;;19.10;1.00;;;;;;5101166;28;20487;-82
2023/04/30 11:23:15;;;;;;;1.73;1.63;;;19.00;1.00;;;;;;5099877;28;20774;-82
2023/04/30 11:25:45;;;;;;;3.80;1.60;;;19.00;1.00;;;;;;5100286;28;20386;-81
2023/04/30 11:28:18;;;;;;;1.70;1.60;;;19.00;1.00;;;;;;5097791;28;20381;-82
2023/04/30 11:30:52;;;;;;;1.90;1.80;;;19.20;1.00;;;;;;5065942;28;20406;-80
2023/04/30 11:33:19;;;;;;;1.70;1.60;;;19.40;1.00;;;;;;5080835;28;20798;-81
2023/04/30 11:35:44;;;;;;;2.20;1.70;;;19.50;1.00;;;;;;5098779;28;20377;-81
2023/04/30 11:38:15;;;;;;;1.63;1.52;;;19.70;1.00;;;;;;5098854;28;20382;-81
2023/04/30 11:40:41;;;;;;;2.10;1.90;;;19.90;1.00;;;;;;5093621;28;20395;-81
2023/04/30 11:43:07;;;;;;;1.80;1.70;;;20.00;1.00;;;;;;5081512;28;20394;-81
2023/04/30 11:45:33;;;;;;;1.70;1.60;;;19.60;1.00;;;;;;5098292;28;20461;-81
2023/04/30 11:47:59;;;;;;;1.50;1.40;;;19.50;1.00;;;;;;5098113;28;20389;-81
2023/04/30 11:50:31;;;;;;;2.63;1.80;;;20.00;1.00;;;;;;5079395;28;20492;-81
2023/04/30 11:52:58;;;;;;;1.80;1.70;;;20.00;1.00;;;;;;5078669;28;20382;-81
2023/04/30 11:55:26;;;;;;;2.00;1.90;;;20.20;1.00;;;;;;5058572;28;20431;-81
2023/04/30 11:57:58;;;;;;;2.95;1.88;;;20.00;1.00;;;;;;5084812;28;20445;-82
2023/04/30 12:00:28;;;;;;;2.10;1.67;;;19.70;1.00;;;;;;5081461;28;20911;-82
2023/04/30 12:02:55;;;;;;;2.20;1.90;;;19.60;1.00;;;;;;5096515;28;20398;-80
2023/04/30 12:05:22;;;;;;;2.05;1.75;;;19.40;1.00;;;;;;5077125;28;20546;-82
2023/04/30 12:07:50;;;;;;;1.90;1.80;;;19.40;1.00;;;;;;5078066;28;20910;-82
2023/04/30 12:10:17;;;;;;;1.80;1.70;;;19.50;1.00;;;;;;5059313;28;20429;-82
2023/04/30 12:12:43;;;;;;;1.83;1.70;;;19.60;1.00;;;;;;5082044;28;20395;-82
2023/04/30 12:15:18;;;;;;;2.10;1.70;;;19.60;1.00;;;;;;5096686;28;20435;-83
2023/04/30 12:17:45;;;;;;;2.30;2.10;;;20.30;1.00;;;;;;5091922;28;20395;-80
2023/04/30 12:20:15;;;;;;;2.28;1.90;;;20.30;1.00;;;;;;5075156;28;20383;-82
2023/04/30 12:22:44;;;;;;;1.83;1.73;;;20.20;1.00;;;;;;5091755;28;20368;-81
2023/04/30 12:25:14;;;;;;;2.33;2.13;;;19.70;1.00;;;;;;5089638;28;20392;-82
2023/04/30 12:27:51;;;;;;;2.00;1.80;;;19.70;1.00;;;;;;5063088;28;20392;-82
2023/04/30 12:30:22;;;;;;;2.20;2.00;;;20.10;1.00;;;;;;5062598;28;20461;-81
2023/04/30 12:32:49;;;;;;;1.80;1.70;;;19.40;1.00;;;;;;5066668;28;20399;-80
2023/04/30 12:35:17;;;;;;;1.90;1.80;;;19.40;1.00;;;;;;5090005;28;20393;-81
2023/04/30 12:37:43;;;;;;;1.93;1.83;;;20.00;1.00;;;;;;5083010;28;20371;-82
2023/04/30 12:40:10;;;;;;;2.25;2.08;;;20.50;1.00;;;;;;5101904;28;20439;-82
2023/04/30 12:42:36;;;;;;;1.60;1.50;;;20.10;1.00;;;;;;5100586;28;20372;-82
2023/04/30 12:45:02;;;;;;;2.15;1.90;;;19.70;1.00;;;;;;5098538;28;20825;-82
2023/04/30 12:47:28;;;;;;;2.08;1.98;;;19.40;1.00;;;;;;5077137;28;20414;-82
2023/04/30 12:49:55;;;;;;;2.60;2.00;;;19.40;1.00;;;;;;5083035;28;20374;-82
2023/04/30 12:52:24;;;;;;;2.10;1.90;;;19.40;1.00;;;;;;5083345;28;20386;-82